Time;durP1;ratioP1;P1;durP2;ratioP2;P2;SDS_P1;SDS_P2;PMS_P1;PMS_P2;Temp;Humidity;BMP_temperature;BMP_pressure;BME280_temperature;BME280_humidity;BME280_pressure;Samples;Min_cycle;Max_cycle;Signal;HPM_P1;HPM_P2
2023/09/12 00:02:05;;;;;;;16.40;8.25;;;19.90;63.80;;;;;;5015628;28;20021;-75
2023/09/12 00:04:30;;;;;;;13.85;7.25;;;19.90;64.10;;;;;;5015183;28;20084;-79
2023/09/12 00:06:56;;;;;;;11.90;7.10;;;20.00;66.20;;;;;;5015254;28;20026;-79
2023/09/12 00:09:22;;;;;;;12.73;7.25;;;20.00;65.30;;;;;;5015299;28;20037;-78
2023/09/12 00:11:47;;;;;;;10.90;7.50;;;20.10;64.30;;;;;;5015493;28;20028;-80
2023/09/12 00:14:17;;;;;;;10.88;6.90;;;20.20;64.30;;;;;;5015238;28;20032;-79
2023/09/12 00:16:43;;;;;;;12.52;6.95;;;20.20;63.50;;;;;;5015435;28;20037;-79
2023/09/12 00:19:09;;;;;;;13.57;7.40;;;20.30;63.60;;;;;;5015464;28;20025;-79
2023/09/12 00:21:34;;;;;;;14.70;7.47;;;20.40;63.00;;;;;;5015430;28;20459;-78
2023/09/12 00:24:00;;;;;;;15.65;7.15;;;20.40;63.10;;;;;;5015386;28;20467;-79
2023/09/12 00:26:26;;;;;;;19.95;7.60;;;20.40;62.60;;;;;;5029532;28;20078;-79
2023/09/12 00:28:51;;;;;;;12.75;7.15;;;20.50;62.50;;;;;;5034682;28;20147;-81
2023/09/12 00:31:17;;;;;;;12.90;7.82;;;20.30;62.70;;;;;;5034967;28;20521;-80
2023/09/12 00:33:43;;;;;;;15.05;7.28;;;20.20;63.00;;;;;;5035201;28;20021;-81
2023/09/12 00:36:08;;;;;;;15.73;7.95;;;20.00;63.70;;;;;;5034971;28;20025;-81
2023/09/12 00:38:34;;;;;;;13.50;7.45;;;19.80;64.50;;;;;;5035036;28;20479;-81
2023/09/12 00:40:59;;;;;;;14.80;7.80;;;19.70;65.50;;;;;;5035060;28;20370;-80
2023/09/12 00:43:25;;;;;;;13.77;7.53;;;19.50;66.10;;;;;;5034964;28;20120;-81
2023/09/12 00:45:50;;;;;;;12.38;8.00;;;19.40;66.30;;;;;;5034868;28;20016;-82
2023/09/12 00:48:17;;;;;;;13.80;7.25;;;19.30;66.60;;;;;;5034718;28;20510;-81
2023/09/12 00:50:45;;;;;;;15.20;7.70;;;19.30;67.30;;;;;;5034574;28;20033;-82
2023/09/12 00:53:10;;;;;;;15.13;7.95;;;19.10;67.50;;;;;;5034646;28;20024;-80
2023/09/12 00:55:40;;;;;;;12.65;8.63;;;19.10;68.10;;;;;;5034735;28;20031;-81
2023/09/12 00:58:07;;;;;;;13.13;7.28;;;19.00;68.50;;;;;;5018478;28;20116;-81
2023/09/12 01:00:33;;;;;;;13.77;7.70;;;19.00;68.60;;;;;;5036307;28;20021;-81
2023/09/12 01:02:59;;;;;;;14.30;8.18;;;18.90;68.80;;;;;;5038616;28;20020;-80
2023/09/12 01:05:26;;;;;;;14.15;7.75;;;18.90;69.20;;;;;;5038623;28;20387;-80
2023/09/12 01:07:52;;;;;;;17.58;7.95;;;18.90;69.30;;;;;;5038617;28;20032;-80
2023/09/12 01:10:18;;;;;;;15.68;8.20;;;18.90;69.30;;;;;;5038297;28;20048;-80
2023/09/12 01:12:44;;;;;;;15.63;8.18;;;18.80;69.40;;;;;;5038465;28;20383;-78
2023/09/12 01:15:13;;;;;;;14.10;8.18;;;18.90;69.40;;;;;;5038529;28;20032;-80
2023/09/12 01:17:43;;;;;;;15.88;8.48;;;18.80;69.30;;;;;;5038460;28;20029;-80
2023/09/12 01:20:14;;;;;;;12.20;7.30;;;18.90;69.60;;;;;;5038494;28;20025;-79
2023/09/12 01:22:49;;;;;;;14.20;7.47;;;18.90;69.50;;;;;;5038451;28;20478;-80
2023/09/12 01:25:33;;;;;;;16.45;8.35;;;18.90;69.50;;;;;;5056325;28;20036;-78
2023/09/12 01:28:01;;;;;;;13.07;7.75;;;18.80;69.50;;;;;;5038143;28;20044;-80
2023/09/12 01:30:30;;;;;;;16.95;8.63;;;18.80;69.70;;;;;;5038102;28;20102;-77
2023/09/12 01:32:56;;;;;;;16.67;7.57;;;18.80;70.00;;;;;;5038344;28;20029;-82
2023/09/12 01:35:22;;;;;;;13.23;7.85;;;18.80;70.00;;;;;;5037965;28;20036;-77
2023/09/12 01:37:47;;;;;;;14.38;8.45;;;18.80;70.00;;;;;;5038150;28;20021;-81
2023/09/12 01:40:15;;;;;;;15.13;8.00;;;18.80;69.80;;;;;;5038163;28;20060;-81
2023/09/12 01:42:46;;;;;;;12.93;8.32;;;18.90;69.90;;;;;;5038028;28;20021;-78
2023/09/12 01:45:15;;;;;;;15.57;8.30;;;18.80;69.90;;;;;;5038080;28;20025;-80
2023/09/12 01:47:41;;;;;;;9.25;7.28;;;18.80;70.10;;;;;;5038007;28;20478;-79
2023/09/12 01:50:12;;;;;;;13.25;7.43;;;18.80;70.00;;;;;;5038066;28;20036;-80
2023/09/12 01:52:38;;;;;;;16.23;8.43;;;18.80;69.80;;;;;;5037964;28;20112;-79
2023/09/12 01:55:06;;;;;;;13.93;8.10;;;18.80;70.00;;;;;;5037981;28;20139;-80
2023/09/12 01:57:32;;;;;;;11.63;7.93;;;18.80;69.70;;;;;;5038019;28;20025;-80
2023/09/12 01:59:58;;;;;;;11.50;7.60;;;19.00;69.70;;;;;;5021868;28;20040;-81
2023/09/12 02:02:23;;;;;;;12.55;7.63;;;19.00;69.40;;;;;;5039377;28;20025;-80
2023/09/12 02:05:19;;;;;;;14.07;8.43;;;18.90;69.70;;;;;;5042366;28;20135;-78
2023/09/12 02:07:46;;;;;;;14.60;8.85;;;18.70;70.10;;;;;;5042096;28;20084;-79
2023/09/12 02:10:12;;;;;;;16.88;9.20;;;18.70;70.50;;;;;;5021274;28;20044;-78
2023/09/12 02:12:38;;;;;;;11.40;7.85;;;18.60;70.70;;;;;;5036719;28;20166;-78
2023/09/12 02:15:04;;;;;;;15.90;8.55;;;18.60;71.10;;;;;;5020891;28;20071;-78
2023/09/12 02:17:30;;;;;;;14.70;8.15;;;18.60;71.20;;;;;;5037174;28;20024;-78
2023/09/12 02:19:55;;;;;;;15.30;8.20;;;18.50;71.50;;;;;;5037109;28;20424;-79
2023/09/12 02:22:21;;;;;;;15.68;8.60;;;18.50;71.50;;;;;;5037525;28;20021;-81
2023/09/12 02:24:47;;;;;;;13.55;8.27;;;18.50;71.70;;;;;;5037417;28;20036;-82
2023/09/12 02:27:12;;;;;;;13.02;8.10;;;18.40;71.80;;;;;;5036610;28;20056;-82
2023/09/12 02:29:42;;;;;;;12.68;8.07;;;18.40;72.00;;;;;;5037399;28;20064;-81
2023/09/12 02:32:08;;;;;;;16.15;8.70;;;18.40;72.20;;;;;;5037389;28;20560;-81
2023/09/12 02:34:34;;;;;;;16.23;8.75;;;18.40;72.40;;;;;;5037327;28;20025;-82
2023/09/12 02:36:59;;;;;;;14.88;9.13;;;18.30;72.50;;;;;;5036826;28;20021;-81
2023/09/12 02:39:25;;;;;;;14.75;8.98;;;18.30;72.70;;;;;;5037160;28;20029;-75
2023/09/12 02:41:50;;;;;;;12.68;8.43;;;18.30;72.80;;;;;;5037064;28;20025;-74
2023/09/12 02:44:16;;;;;;;14.05;8.27;;;18.40;72.70;;;;;;5036996;28;20456;-74
2023/09/12 02:46:42;;;;;;;15.35;9.13;;;18.40;72.40;;;;;;5037139;28;20098;-75
2023/09/12 02:49:07;;;;;;;14.77;8.73;;;18.50;72.40;;;;;;5036851;28;20396;-74
2023/09/12 02:51:33;;;;;;;9.20;7.65;;;18.50;72.20;;;;;;5036883;28;20032;-74
2023/09/12 02:53:58;;;;;;;9.50;7.57;;;18.60;72.00;;;;;;5036872;28;20063;-74
2023/09/12 02:56:24;;;;;;;12.13;8.23;;;18.60;72.00;;;;;;5036915;28;20374;-76
2023/09/12 02:58:50;;;;;;;13.13;8.50;;;18.60;71.90;;;;;;5036878;28;20021;-75
2023/09/12 03:01:19;;;;;;;11.45;7.82;;;18.50;72.00;;;;;;5036819;28;20017;-75
2023/09/12 03:03:49;;;;;;;13.15;8.00;;;18.50;72.10;;;;;;5036296;28;20388;-74
2023/09/12 03:06:15;;;;;;;16.02;9.00;;;18.60;72.10;;;;;;5036613;28;20024;-75
2023/09/12 03:08:41;;;;;;;9.52;7.72;;;18.60;72.00;;;;;;5036061;28;20021;-75
2023/09/12 03:11:07;;;;;;;15.45;8.07;;;18.60;72.00;;;;;;5036326;28;20063;-75
2023/09/12 03:13:34;;;;;;;10.55;8.05;;;18.60;71.80;;;;;;5036795;28;20029;-75
2023/09/12 03:16:00;;;;;;;14.40;8.02;;;18.60;71.90;;;;;;5036386;28;20090;-76
2023/09/12 03:18:26;;;;;;;16.08;8.50;;;18.60;71.80;;;;;;5036388;28;20057;-75
2023/09/12 03:20:51;;;;;;;12.50;8.48;;;18.60;71.70;;;;;;5036360;28;20402;-74
2023/09/12 03:23:19;;;;;;;13.32;8.20;;;18.70;71.70;;;;;;5036165;28;20028;-74
2023/09/12 03:25:44;;;;;;;14.88;9.07;;;18.70;71.50;;;;;;5036260;28;20029;-75
2023/09/12 03:28:10;;;;;;;15.25;8.55;;;18.70;71.50;;;;;;5036170;28;20079;-74
2023/09/12 03:30:37;;;;;;;13.07;8.40;;;18.70;71.50;;;;;;5036148;28;20037;-75
2023/09/12 03:33:03;;;;;;;10.82;8.07;;;18.70;71.40;;;;;;5035984;28;20078;-75
2023/09/12 03:35:31;;;;;;;13.15;9.05;;;18.70;71.40;;;;;;5036215;28;20032;-76
2023/09/12 03:37:56;;;;;;;16.60;9.13;;;18.70;71.40;;;;;;5035950;28;20064;-76
2023/09/12 03:40:22;;;;;;;11.52;8.50;;;18.70;71.40;;;;;;5035798;28;20580;-75
2023/09/12 03:42:47;;;;;;;15.45;9.25;;;18.70;71.60;;;;;;5035994;28;20075;-76
2023/09/12 03:45:13;;;;;;;14.30;9.35;;;18.60;71.70;;;;;;5035857;28;20033;-76
2023/09/12 03:47:38;;;;;;;12.90;9.15;;;18.60;71.70;;;;;;5035771;28;20028;-75
2023/09/12 03:50:05;;;;;;;10.85;8.85;;;18.60;71.70;;;;;;5035747;28;20136;-77
2023/09/12 03:52:30;;;;;;;10.20;8.30;;;18.60;71.80;;;;;;5035654;28;20115;-77
2023/09/12 03:54:56;;;;;;;12.18;8.63;;;18.60;72.00;;;;;;5035708;28;20056;-75
2023/09/12 03:57:22;;;;;;;14.18;8.70;;;18.60;72.00;;;;;;5035463;28;20367;-74
2023/09/12 03:59:47;;;;;;;14.50;8.55;;;18.60;72.60;;;;;;5037117;28;20033;-74
2023/09/12 04:02:13;;;;;;;14.80;8.57;;;18.70;71.70;;;;;;5052087;28;20036;-76
2023/09/12 04:04:39;;;;;;;12.00;8.02;;;18.70;71.50;;;;;;5050306;28;20025;-76
2023/09/12 04:07:05;;;;;;;11.00;8.13;;;18.70;71.40;;;;;;5055453;28;20052;-75
2023/09/12 04:09:31;;;;;;;13.55;9.70;;;18.80;71.20;;;;;;5055366;28;20494;-76
2023/09/12 04:11:57;;;;;;;12.43;9.02;;;18.80;71.10;;;;;;5055546;28;20394;-76
2023/09/12 04:14:22;;;;;;;18.42;9.27;;;18.80;71.20;;;;;;5055360;28;20021;-79
2023/09/12 04:16:48;;;;;;;14.10;8.77;;;18.80;71.50;;;;;;5054953;28;20032;-77
2023/09/12 04:19:14;;;;;;;11.48;8.32;;;18.90;71.50;;;;;;5051750;28;20119;-80
2023/09/12 04:21:40;;;;;;;11.52;8.88;;;19.10;71.70;;;;;;5050339;28;20021;-77
2023/09/12 04:24:07;;;;;;;14.98;9.38;;;19.20;70.20;;;;;;5051834;28;20074;-77
2023/09/12 04:26:32;;;;;;;12.15;8.32;;;19.20;69.60;;;;;;5048231;28;20021;-76
2023/09/12 04:28:58;;;;;;;11.27;8.88;;;19.20;69.50;;;;;;5051782;28;20040;-75
2023/09/12 04:31:24;;;;;;;19.00;10.55;;;19.30;69.20;;;;;;5067648;28;20023;-76
2023/09/12 04:33:53;;;;;;;21.20;9.13;;;19.30;68.90;;;;;;5056172;28;20017;-75
2023/09/12 04:36:19;;;;;;;11.85;8.40;;;19.40;68.70;;;;;;5052476;28;20025;-75
2023/09/12 04:38:45;;;;;;;14.13;9.18;;;19.40;68.50;;;;;;5051734;28;20021;-77
2023/09/12 04:41:17;;;;;;;16.33;8.98;;;19.40;68.80;;;;;;5054907;28;20577;-84
2023/09/12 04:43:44;;;;;;;16.05;9.45;;;19.40;68.70;;;;;;5054040;28;20410;-80
2023/09/12 04:46:10;;;;;;;17.52;8.38;;;19.40;68.60;;;;;;5054485;28;20025;-76
2023/09/12 04:48:36;;;;;;;11.55;8.25;;;19.40;68.50;;;;;;5052143;28;20363;-76
2023/09/12 04:51:01;;;;;;;10.50;8.55;;;19.50;68.50;;;;;;5054903;28;20085;-77
2023/09/12 04:53:33;;;;;;;12.82;8.48;;;19.50;68.20;;;;;;5054675;28;20036;-75
2023/09/12 04:55:59;;;;;;;16.38;9.15;;;19.60;67.80;;;;;;5054884;28;20115;-73
2023/09/12 04:58:24;;;;;;;14.82;8.68;;;19.60;67.50;;;;;;5054805;28;20120;-73
2023/09/12 05:00:50;;;;;;;15.25;8.88;;;19.50;67.60;;;;;;5054710;28;20025;-73
2023/09/12 05:03:16;;;;;;;13.98;8.35;;;19.40;68.10;;;;;;5054776;28;20028;-73
2023/09/12 05:05:42;;;;;;;14.05;8.93;;;19.30;68.70;;;;;;5054729;28;20518;-74
2023/09/12 05:08:07;;;;;;;11.23;9.00;;;19.20;69.10;;;;;;5054801;28;20067;-73
2023/09/12 05:10:33;;;;;;;12.68;9.43;;;19.10;69.70;;;;;;5054668;28;20037;-73
2023/09/12 05:12:58;;;;;;;12.60;8.98;;;19.00;70.20;;;;;;5054625;28;20024;-73
2023/09/12 05:15:24;;;;;;;12.65;9.00;;;18.90;70.60;;;;;;5054678;28;20115;-75
2023/09/12 05:17:49;;;;;;;12.27;8.48;;;18.90;70.70;;;;;;5054612;28;20028;-75
2023/09/12 05:20:15;;;;;;;10.90;9.15;;;18.90;70.80;;;;;;5054657;28;20383;-74
2023/09/12 05:22:40;;;;;;;14.55;8.82;;;18.90;70.70;;;;;;5054345;28;20021;-74
2023/09/12 05:25:06;;;;;;;11.60;9.10;;;18.90;70.70;;;;;;5054201;28;20352;-75
2023/09/12 05:27:32;;;;;;;11.13;9.35;;;19.00;70.30;;;;;;5054117;28;20067;-74
2023/09/12 05:29:57;;;;;;;10.35;9.25;;;19.10;70.30;;;;;;5053859;28;20082;-74
2023/09/12 05:32:23;;;;;;;10.70;8.80;;;19.20;69.90;;;;;;5053792;28;20035;-74
2023/09/12 05:34:49;;;;;;;9.38;8.32;;;19.20;69.80;;;;;;5053831;28;20371;-75
2023/09/12 05:37:15;;;;;;;10.93;9.18;;;19.30;69.70;;;;;;5054193;28;20021;-75
2023/09/12 05:39:41;;;;;;;9.32;8.25;;;19.40;69.50;;;;;;5054332;28;20078;-75
2023/09/12 05:42:07;;;;;;;12.38;8.55;;;19.40;69.30;;;;;;5056827;28;20027;-74
2023/09/12 05:44:32;;;;;;;10.65;8.75;;;19.50;69.00;;;;;;5054309;28;20031;-75
2023/09/12 05:46:58;;;;;;;9.35;8.38;;;19.50;69.10;;;;;;5054992;28;20157;-74
2023/09/12 05:49:24;;;;;;;11.38;9.00;;;19.60;69.50;;;;;;5057701;28;20028;-75
2023/09/12 05:51:50;;;;;;;12.55;8.93;;;19.60;68.70;;;;;;5057785;28;20025;-74
2023/09/12 05:54:16;;;;;;;11.20;8.98;;;19.60;68.80;;;;;;5057730;28;20027;-76
2023/09/12 05:56:42;;;;;;;11.82;8.48;;;19.70;68.90;;;;;;5057796;28;20378;-75
2023/09/12 05:59:07;;;;;;;12.95;10.05;;;19.70;68.80;;;;;;5057530;28;20032;-74
2023/09/12 06:01:33;;;;;;;13.88;9.63;;;19.70;68.90;;;;;;5061037;28;20104;-74
2023/09/12 06:03:58;;;;;;;12.52;9.10;;;19.80;68.80;;;;;;5057355;28;20050;-74
2023/09/12 06:06:24;;;;;;;12.07;9.25;;;19.80;68.40;;;;;;5057718;28;20020;-75
2023/09/12 06:08:50;;;;;;;10.95;8.60;;;19.90;68.40;;;;;;5057534;28;20050;-73
2023/09/12 06:11:15;;;;;;;10.88;9.18;;;19.90;68.50;;;;;;5057097;28;20032;-73
2023/09/12 06:13:41;;;;;;;10.00;8.02;;;20.00;68.40;;;;;;5057542;28;20517;-75
2023/09/12 06:16:06;;;;;;;9.98;8.50;;;20.00;68.30;;;;;;5057649;28;20352;-74
2023/09/12 06:18:34;;;;;;;10.07;9.05;;;20.10;68.20;;;;;;5057375;28;20633;-74
2023/09/12 06:21:06;;;;;;;12.00;10.35;;;20.20;68.00;;;;;;5074805;28;20450;-74
2023/09/12 06:23:31;;;;;;;10.20;8.93;;;20.30;68.00;;;;;;5057344;28;20048;-74
2023/09/12 06:25:57;;;;;;;12.63;9.77;;;20.40;67.90;;;;;;5057218;28;20032;-74
2023/09/12 06:28:27;;;;;;;11.88;9.63;;;20.40;67.70;;;;;;5053045;28;20041;-74
2023/09/12 06:30:53;;;;;;;13.45;8.75;;;20.50;67.60;;;;;;5053487;28;20045;-74
2023/09/12 06:33:19;;;;;;;10.18;8.80;;;20.50;67.50;;;;;;5053466;28;20058;-73
2023/09/12 06:35:50;;;;;;;12.25;8.77;;;20.60;67.40;;;;;;5055023;28;20100;-74
2023/09/12 06:38:16;;;;;;;10.63;8.93;;;20.70;67.00;;;;;;5053666;28;20025;-74
2023/09/12 06:40:43;;;;;;;11.05;9.32;;;20.70;66.80;;;;;;5053599;28;20053;-74
2023/09/12 06:43:08;;;;;;;11.20;9.95;;;20.80;66.60;;;;;;5053535;28;20503;-74
2023/09/12 06:45:37;;;;;;;13.93;9.45;;;20.90;66.60;;;;;;5053762;28;20087;-78
2023/09/12 06:48:03;;;;;;;11.73;8.15;;;20.90;66.50;;;;;;5037262;28;20029;-74
2023/09/12 06:50:29;;;;;;;10.15;8.88;;;21.00;66.50;;;;;;5053350;28;20128;-75
2023/09/12 06:52:55;;;;;;;9.95;8.45;;;21.10;66.40;;;;;;5053363;28;20116;-73
2023/09/12 06:55:20;;;;;;;9.52;8.63;;;21.20;66.50;;;;;;5053382;28;20063;-73
2023/09/12 06:57:46;;;;;;;9.77;8.65;;;21.20;66.40;;;;;;5052823;28;20025;-75
2023/09/12 07:00:12;;;;;;;10.98;8.65;;;21.20;66.90;;;;;;5053404;28;20435;-74
2023/09/12 07:02:38;;;;;;;13.25;8.55;;;21.20;66.90;;;;;;5056272;28;20394;-74
2023/09/12 07:05:04;;;;;;;9.48;8.52;;;21.30;67.10;;;;;;5053227;28;20036;-74
2023/09/12 07:07:30;;;;;;;15.00;9.15;;;21.30;67.20;;;;;;5052882;28;20017;-75
2023/09/12 07:09:56;;;;;;;11.68;9.10;;;21.40;67.40;;;;;;5052849;28;20037;-73
2023/09/12 07:12:23;;;;;;;9.65;8.57;;;21.50;67.00;;;;;;5053028;28;20029;-73
2023/09/12 07:14:50;;;;;;;10.40;9.07;;;21.70;66.60;;;;;;5054228;28;20025;-74
2023/09/12 07:17:17;;;;;;;11.40;9.32;;;21.80;65.80;;;;;;5053028;28;20020;-73
2023/09/12 07:19:43;;;;;;;10.07;8.80;;;22.10;65.40;;;;;;5052889;28;20498;-73
2023/09/12 07:22:08;;;;;;;9.60;8.07;;;22.30;65.00;;;;;;5053047;28;20120;-73
2023/09/12 07:24:34;;;;;;;10.30;8.65;;;22.50;64.40;;;;;;5053047;28;20017;-73
2023/09/12 07:27:00;;;;;;;10.50;8.73;;;22.60;63.80;;;;;;5056605;28;20496;-74
2023/09/12 07:29:26;;;;;;;12.93;8.98;;;22.80;63.50;;;;;;5072699;28;20059;-74
2023/09/12 07:31:55;;;;;;;9.25;8.32;;;22.90;63.30;;;;;;5072711;28;20492;-74
2023/09/12 07:34:21;;;;;;;9.38;8.38;;;23.10;62.80;;;;;;5056053;28;20028;-74
2023/09/12 07:36:47;;;;;;;10.85;7.43;;;23.20;62.60;;;;;;5055754;28;20459;-74
2023/09/12 07:39:12;;;;;;;12.90;8.65;;;23.40;62.70;;;;;;5072503;28;20032;-75
2023/09/12 07:41:38;;;;;;;12.32;8.55;;;23.50;61.90;;;;;;5072151;28;20017;-74
2023/09/12 07:44:04;;;;;;;10.38;8.25;;;23.50;61.50;;;;;;5072475;28;20025;-74
2023/09/12 07:46:30;;;;;;;10.77;9.02;;;23.60;61.50;;;;;;5072451;28;20117;-74
2023/09/12 07:48:56;;;;;;;18.15;9.93;;;23.70;61.80;;;;;;5055787;28;20028;-76
2023/09/12 07:51:22;;;;;;;20.58;10.63;;;23.70;60.90;;;;;;5073188;28;20359;-74
2023/09/12 07:53:48;;;;;;;12.85;10.02;;;23.70;60.70;;;;;;5055724;28;20025;-73
2023/09/12 07:56:14;;;;;;;11.38;9.70;;;23.50;60.70;;;;;;5038885;28;20358;-74
2023/09/12 07:58:39;;;;;;;15.05;10.30;;;23.40;61.30;;;;;;5072111;28;20035;-75
2023/09/12 08:01:11;;;;;;;14.00;9.40;;;23.50;62.70;;;;;;5055061;28;20021;-75
2023/09/12 08:03:39;;;;;;;14.73;10.63;;;23.50;62.40;;;;;;5020058;28;20037;-74
2023/09/12 08:06:05;;;;;;;15.82;10.40;;;23.50;61.70;;;;;;5055317;28;20025;-78
2023/09/12 08:08:31;;;;;;;11.93;9.65;;;23.50;61.60;;;;;;5072919;28;20025;-74
2023/09/12 08:10:57;;;;;;;12.10;9.77;;;23.60;61.70;;;;;;5070824;28;20037;-76
2023/09/12 08:13:25;;;;;;;15.95;10.63;;;23.80;61.40;;;;;;5071648;28;20082;-74
2023/09/12 08:15:51;;;;;;;15.20;10.52;;;23.80;61.20;;;;;;5054911;28;20111;-74
2023/09/12 08:18:16;;;;;;;13.55;10.45;;;23.90;61.20;;;;;;5055183;28;20099;-73
2023/09/12 08:20:43;;;;;;;11.60;9.68;;;24.00;60.20;;;;;;5054998;28;20078;-74
2023/09/12 08:23:09;;;;;;;13.77;10.65;;;24.10;59.30;;;;;;5075819;28;20021;-74
2023/09/12 08:25:34;;;;;;;12.85;10.68;;;24.30;59.70;;;;;;5055253;28;20432;-74
2023/09/12 08:28:00;;;;;;;11.25;9.07;;;24.40;59.00;;;;;;5054751;28;20048;-74
2023/09/12 08:30:25;;;;;;;12.43;10.00;;;24.60;58.30;;;;;;5055038;28;20082;-75
2023/09/12 08:32:51;;;;;;;13.00;10.00;;;24.70;57.50;;;;;;5055019;28;20029;-74
2023/09/12 08:35:17;;;;;;;9.77;8.68;;;24.70;56.20;;;;;;5054956;28;20048;-77
2023/09/12 08:37:42;;;;;;;10.88;9.77;;;24.70;56.30;;;;;;5054459;28;20024;-74
2023/09/12 08:40:10;;;;;;;10.20;9.10;;;24.90;56.90;;;;;;5054821;28;20033;-73
2023/09/12 08:42:41;;;;;;;9.77;8.77;;;25.10;56.80;;;;;;5054839;28;20020;-73
2023/09/12 08:45:17;;;;;;;12.48;10.15;;;25.30;55.80;;;;;;5054960;28;20024;-75
2023/09/12 08:47:51;;;;;;;13.52;10.07;;;25.30;55.80;;;;;;5054825;28;20063;-75
2023/09/12 08:50:17;;;;;;;12.93;9.55;;;25.40;55.80;;;;;;5053958;28;20044;-75
2023/09/12 08:52:44;;;;;;;11.07;9.90;;;25.50;55.10;;;;;;5054793;28;20470;-75
2023/09/12 08:55:11;;;;;;;13.35;9.45;;;25.70;54.40;;;;;;5054770;28;20029;-75
2023/09/12 08:57:40;;;;;;;13.20;9.38;;;25.90;53.60;;;;;;5054795;28;20494;-74
2023/09/12 09:00:08;;;;;;;16.95;9.52;;;26.10;53.40;;;;;;5054963;28;20029;-74
2023/09/12 09:02:38;;;;;;;12.80;9.25;;;26.20;52.40;;;;;;5054467;28;20101;-74
2023/09/12 09:05:05;;;;;;;9.68;8.73;;;26.40;51.90;;;;;;5054651;28;20057;-74
2023/09/12 09:07:34;;;;;;;8.98;7.80;;;26.60;52.60;;;;;;5054343;28;20105;-74
2023/09/12 09:10:04;;;;;;;11.57;9.23;;;26.80;51.60;;;;;;5054529;28;20040;-74
2023/09/12 09:12:30;;;;;;;11.43;9.30;;;27.10;52.10;;;;;;5054697;28;20021;-74
2023/09/12 09:14:56;;;;;;;12.73;8.98;;;27.20;49.90;;;;;;5054900;28;20025;-74
2023/09/12 09:17:21;;;;;;;10.77;8.93;;;27.10;49.20;;;;;;5072336;28;20025;-75
2023/09/12 09:19:47;;;;;;;12.18;8.23;;;27.30;49.20;;;;;;5054463;28;20066;-74
2023/09/12 09:22:13;;;;;;;10.45;8.85;;;27.50;48.30;;;;;;5057287;28;20457;-74
2023/09/12 09:24:38;;;;;;;11.77;8.75;;;27.70;46.60;;;;;;5058500;28;20021;-75
2023/09/12 09:27:04;;;;;;;10.27;9.10;;;27.80;47.60;;;;;;5058069;28;20486;-75
2023/09/12 09:29:31;;;;;;;9.25;8.32;;;27.80;46.60;;;;;;5058390;28;20024;-75
2023/09/12 09:32:01;;;;;;;12.65;9.65;;;27.50;47.20;;;;;;5076035;28;20021;-73
2023/09/12 09:34:31;;;;;;;9.88;8.85;;;27.60;47.70;;;;;;5058193;28;20382;-74
2023/09/12 09:36:58;;;;;;;12.05;10.13;;;27.50;48.20;;;;;;5058093;28;20048;-73
2023/09/12 09:39:25;;;;;;;12.32;9.60;;;27.60;48.30;;;;;;5058239;28;20055;-75
2023/09/12 09:41:53;;;;;;;13.32;9.23;;;27.70;50.00;;;;;;5058278;28;20020;-75
2023/09/12 09:44:28;;;;;;;13.68;9.57;;;27.80;48.60;;;;;;5059552;28;20020;-73
2023/09/12 09:47:02;;;;;;;12.65;9.27;;;27.90;48.40;;;;;;5058393;28;20027;-75
2023/09/12 09:49:30;;;;;;;10.73;9.07;;;28.00;48.10;;;;;;5058506;28;20131;-74
2023/09/12 09:51:58;;;;;;;13.55;9.25;;;28.10;48.00;;;;;;5058194;28;20021;-75
2023/09/12 09:54:25;;;;;;;14.77;8.60;;;28.10;47.80;;;;;;5057758;28;20039;-74
2023/09/12 09:56:54;;;;;;;10.30;8.88;;;28.40;47.10;;;;;;5057761;28;20048;-73
2023/09/12 09:59:25;;;;;;;8.65;7.82;;;28.50;46.40;;;;;;5057544;28;20025;-74
2023/09/12 10:01:55;;;;;;;10.70;8.32;;;28.70;45.70;;;;;;5057435;28;20086;-73
2023/09/12 10:04:22;;;;;;;16.25;8.48;;;28.80;44.70;;;;;;5057515;28;20048;-75
2023/09/12 10:06:49;;;;;;;13.60;10.05;;;29.00;45.60;;;;;;5057552;28;20032;-73
2023/09/12 10:09:16;;;;;;;13.70;9.07;;;29.10;43.80;;;;;;5075274;28;20016;-74
2023/09/12 10:11:46;;;;;;;9.20;8.13;;;29.20;43.30;;;;;;5057227;28;20060;-73
2023/09/12 10:14:15;;;;;;;9.85;8.00;;;29.10;42.90;;;;;;5057350;28;20021;-74
2023/09/12 10:16:49;;;;;;;11.13;8.77;;;29.40;43.00;;;;;;5075168;28;20086;-73
2023/09/12 10:19:17;;;;;;;9.18;8.05;;;29.70;42.30;;;;;;5051059;28;20031;-77
2023/09/12 10:21:52;;;;;;;8.88;7.97;;;29.90;41.80;;;;;;5057383;28;20220;-76
2023/09/12 10:24:21;;;;;;;12.00;8.25;;;30.00;40.90;;;;;;5057174;28;20027;-77
2023/09/12 10:26:50;;;;;;;11.18;7.97;;;30.30;40.50;;;;;;5056999;28;20127;-77
2023/09/12 10:29:15;;;;;;;11.65;7.97;;;30.40;39.70;;;;;;5056377;28;20021;-75
2023/09/12 10:31:46;;;;;;;8.23;7.43;;;30.40;39.30;;;;;;5056833;28;20031;-78
2023/09/12 10:34:14;;;;;;;11.25;7.55;;;30.50;38.40;;;;;;5055960;28;20052;-78
2023/09/12 10:36:42;;;;;;;10.45;6.90;;;30.70;37.10;;;;;;5057002;28;20097;-74
2023/09/12 10:39:10;;;;;;;10.15;7.60;;;30.80;37.50;;;;;;5056887;28;20016;-74
2023/09/12 10:41:38;;;;;;;9.45;7.68;;;31.00;37.20;;;;;;5056800;28;20355;-74
2023/09/12 10:44:11;;;;;;;9.27;6.72;;;31.20;36.90;;;;;;5056840;28;20024;-75
2023/09/12 10:46:41;;;;;;;7.93;6.93;;;31.50;36.30;;;;;;5056522;28;20371;-75
2023/09/12 10:49:12;;;;;;;9.05;7.00;;;31.80;35.80;;;;;;5074233;28;20047;-75
2023/09/12 10:51:42;;;;;;;10.85;7.15;;;32.10;35.20;;;;;;5056085;28;20040;-77
2023/09/12 10:54:08;;;;;;;9.95;6.80;;;32.30;33.10;;;;;;5039923;28;20086;-78
2023/09/12 10:56:34;;;;;;;8.20;6.57;;;32.50;31.80;;;;;;5056363;28;20409;-75
2023/09/12 10:59:12;;;;;;;11.10;7.20;;;32.40;31.80;;;;;;5056365;28;20047;-74
2023/09/12 11:01:48;;;;;;;11.27;6.40;;;32.60;32.00;;;;;;5056307;28;20033;-76
2023/09/12 11:04:34;;;;;;;6.00;5.40;;;32.90;31.00;;;;;;5056324;28;20024;-75
2023/09/12 11:07:00;;;;;;;6.85;5.72;;;32.80;28.40;;;;;;5055728;28;20095;-74
2023/09/12 11:09:26;;;;;;;7.03;5.65;;;32.60;29.30;;;;;;5056266;28;20033;-78
2023/09/12 11:12:03;;;;;;;5.97;5.40;;;32.60;28.70;;;;;;5055903;28;20024;-76
2023/09/12 11:14:29;;;;;;;6.72;6.03;;;32.10;31.00;;;;;;5056311;28;20463;-75
2023/09/12 11:17:07;;;;;;;7.80;5.90;;;32.10;30.90;;;;;;5056475;28;20028;-75
2023/09/12 11:19:52;;;;;;;8.23;5.97;;;32.00;30.00;;;;;;5056174;28;20036;-75
2023/09/12 11:22:39;;;;;;;6.85;6.20;;;32.20;30.80;;;;;;5056176;28;20106;-74
2023/09/12 11:25:15;;;;;;;7.05;6.30;;;32.50;30.70;;;;;;5056278;28;20028;-74
2023/09/12 11:28:01;;;;;;;12.18;6.47;;;32.70;31.00;;;;;;5055850;28;20048;-74
2023/09/12 11:30:30;;;;;;;7.32;6.60;;;32.90;29.90;;;;;;5055415;28;20072;-75
2023/09/12 11:32:57;;;;;;;9.07;7.07;;;32.80;29.70;;;;;;5056360;28;20026;-75
2023/09/12 11:35:29;;;;;;;7.45;6.75;;;32.60;30.90;;;;;;5056312;28;20020;-75
2023/09/12 11:37:57;;;;;;;7.13;5.72;;;32.30;31.40;;;;;;5055965;28;20063;-73
2023/09/12 11:40:42;;;;;;;8.25;6.20;;;32.60;29.80;;;;;;5056030;28;20032;-75
2023/09/12 11:43:25;;;;;;;7.28;6.25;;;33.20;29.40;;;;;;5055921;28;20032;-75
2023/09/12 11:45:52;;;;;;;8.25;5.65;;;33.40;28.10;;;;;;5055924;28;20037;-73
2023/09/12 11:48:18;;;;;;;8.05;5.88;;;33.60;28.20;;;;;;5055791;28;20025;-74
2023/09/12 11:50:53;;;;;;;10.35;5.78;;;33.80;27.10;;;;;;5055686;28;20048;-75
2023/09/12 11:53:20;;;;;;;;;;;34.00;27.00;;;;;;5056032;28;20035;-76
2023/09/12 11:55:47;;;;;;;6.82;6.25;;;33.90;26.90;;;;;;5073451;28;19905;-75
2023/09/12 11:58:15;;;;;;;6.90;6.20;;;34.20;26.50;;;;;;5055597;28;20035;-76
2023/09/12 12:00:51;;;;;;;7.55;5.75;;;34.20;26.00;;;;;;5073288;28;20025;-75
2023/09/12 12:03:18;;;;;;;6.93;5.00;;;34.20;25.90;;;;;;5055333;28;20027;-74
2023/09/12 12:05:43;;;;;;;6.53;5.25;;;33.80;25.60;;;;;;5055294;28;20032;-75
2023/09/12 12:08:10;;;;;;;7.97;5.47;;;33.30;27.40;;;;;;5055407;28;20374;-74
2023/09/12 12:10:38;;;;;;;9.32;5.63;;;33.10;26.50;;;;;;5055030;28;20535;-75
2023/09/12 12:13:04;;;;;;;7.60;5.35;;;32.90;26.00;;;;;;5055318;28;20020;-73
2023/09/12 12:15:30;;;;;;;6.22;5.60;;;32.60;27.60;;;;;;5055161;28;20364;-74
2023/09/12 12:17:56;;;;;;;5.78;4.80;;;32.70;27.50;;;;;;5055315;28;20035;-73
2023/09/12 12:20:22;;;;;;;9.15;5.45;;;32.80;28.00;;;;;;5055281;28;20024;-74
2023/09/12 12:22:48;;;;;;;7.47;5.57;;;32.90;26.90;;;;;;5055077;28;20021;-75
2023/09/12 12:25:15;;;;;;;9.82;5.70;;;33.20;27.00;;;;;;5056092;28;20086;-76
2023/09/12 12:27:42;;;;;;;8.52;5.60;;;33.20;27.90;;;;;;5059761;28;20049;-75
2023/09/12 12:30:13;;;;;;;6.40;5.80;;;33.20;27.00;;;;;;5055638;28;20051;-75
2023/09/12 12:32:43;;;;;;;9.23;5.95;;;33.20;27.20;;;;;;5054878;28;20063;-73
2023/09/12 12:35:20;;;;;;;10.18;6.15;;;33.00;26.90;;;;;;5054955;28;20024;-73
2023/09/12 12:37:47;;;;;;;6.53;5.50;;;32.10;28.50;;;;;;5054846;28;20459;-73
2023/09/12 12:40:13;;;;;;;9.45;6.13;;;31.80;29.00;;;;;;5055015;28;20071;-73